createdAt,value
2017-12-20T00:00:55.181Z,0
2017-12-20T00:01:56.920Z,0
2017-12-20T00:02:58.484Z,0
2017-12-20T00:03:59.909Z,0
2017-12-20T00:05:01.687Z,0
2017-12-20T00:06:03.249Z,0
2017-12-20T00:07:04.723Z,0
2017-12-20T00:08:06.202Z,0
2017-12-20T00:09:07.702Z,0
2017-12-20T00:10:09.133Z,0
2017-12-20T00:11:10.704Z,0
2017-12-20T00:12:12.470Z,0
2017-12-20T00:13:14.131Z,0
2017-12-20T00:14:15.785Z,0
2017-12-20T00:15:17.398Z,0
2017-12-20T00:16:19.119Z,0
2017-12-20T00:17:20.761Z,0
2017-12-20T00:18:22.353Z,0
2017-12-20T00:19:23.925Z,0
2017-12-20T00:20:25.389Z,0
2017-12-20T00:21:26.849Z,0
2017-12-20T00:22:28.371Z,0
2017-12-20T00:23:29.792Z,0
2017-12-20T00:24:31.303Z,0
2017-12-20T00:25:32.831Z,0
2017-12-20T00:26:34.306Z,0
2017-12-20T00:27:35.763Z,0
2017-12-20T00:28:37.238Z,0
2017-12-20T00:29:38.742Z,0
2017-12-20T00:30:40.182Z,0
2017-12-20T00:31:41.663Z,0
2017-12-20T00:32:43.224Z,0
2017-12-20T00:33:44.645Z,0
2017-12-20T00:34:46.081Z,0
2017-12-20T00:35:47.705Z,0
2017-12-20T00:36:49.472Z,0
2017-12-20T00:37:50.979Z,0
2017-12-20T00:38:52.441Z,0
2017-12-20T00:39:54.071Z,0
2017-12-20T00:40:55.555Z,0
2017-12-20T00:41:57.125Z,0
2017-12-20T00:42:58.580Z,0
2017-12-20T00:44:00.005Z,0
2017-12-20T00:45:01.431Z,0
2017-12-20T00:46:02.925Z,0
2017-12-20T00:47:04.566Z,0
2017-12-20T00:48:06.010Z,0
2017-12-20T00:49:07.484Z,0
2017-12-20T00:50:08.945Z,0
2017-12-20T00:51:10.384Z,0
2017-12-20T00:52:11.817Z,0
2017-12-20T00:53:13.484Z,0
2017-12-20T00:54:14.899Z,0
2017-12-20T00:55:16.324Z,0
2017-12-20T00:56:17.793Z,0
2017-12-20T00:57:19.229Z,0
2017-12-20T00:58:20.635Z,0
2017-12-20T00:59:22.141Z,0
2017-12-20T01:00:23.600Z,0
2017-12-20T01:01:25.031Z,0
2017-12-20T01:02:26.470Z,0
2017-12-20T01:03:28.203Z,0
2017-12-20T01:04:29.899Z,0
2017-12-20T01:05:31.332Z,0
2017-12-20T01:06:32.922Z,0
2017-12-20T01:07:34.375Z,0
2017-12-20T01:08:35.882Z,0
2017-12-20T01:09:37.329Z,0
2017-12-20T01:10:38.761Z,0
2017-12-20T01:11:40.463Z,0
2017-12-20T01:12:42.100Z,0
2017-12-20T01:13:43.632Z,0
2017-12-20T01:14:45.299Z,0
2017-12-20T01:15:46.741Z,0
2017-12-20T01:16:48.157Z,0
2017-12-20T01:17:49.673Z,0
2017-12-20T01:18:51.268Z,0
2017-12-20T01:19:52.748Z,0
2017-12-20T01:20:54.178Z,0
2017-12-20T01:21:55.606Z,0
2017-12-20T01:22:57.336Z,0
2017-12-20T01:23:58.861Z,0
2017-12-20T01:25:00.308Z,0
2017-12-20T01:26:02.005Z,0
2017-12-20T01:27:03.471Z,0
2017-12-20T01:28:05.255Z,0
2017-12-20T01:29:06.914Z,0
2017-12-20T01:30:08.424Z,0
2017-12-20T01:31:09.892Z,0
2017-12-20T01:32:11.460Z,0
2017-12-20T01:33:13.133Z,0
2017-12-20T01:34:14.821Z,0
2017-12-20T01:35:16.353Z,0
2017-12-20T01:36:18.169Z,0
2017-12-20T01:37:19.730Z,0
2017-12-20T01:38:21.393Z,0
2017-12-20T01:39:22.913Z,0
2017-12-20T01:40:24.661Z,0
2017-12-20T01:41:26.331Z,0
2017-12-20T01:42:28.023Z,0
2017-12-20T01:43:29.676Z,0
2017-12-20T01:44:31.355Z,0
2017-12-20T01:45:33.036Z,0
2017-12-20T01:46:34.745Z,0
2017-12-20T01:47:36.407Z,0
2017-12-20T01:48:37.923Z,0
2017-12-20T01:49:39.568Z,0
2017-12-20T01:50:41.317Z,0
2017-12-20T01:51:43.037Z,0
2017-12-20T01:52:44.696Z,0
2017-12-20T01:53:46.466Z,0
2017-12-20T01:54:47.970Z,0
2017-12-20T01:55:49.683Z,0
2017-12-20T01:56:51.321Z,0
2017-12-20T01:57:52.955Z,0
2017-12-20T01:58:54.478Z,0
2017-12-20T01:59:56.082Z,0
2017-12-20T02:00:57.793Z,0
2017-12-20T02:01:59.310Z,0
2017-12-20T02:03:00.829Z,0
2017-12-20T02:04:02.600Z,0
2017-12-20T02:05:04.026Z,0
2017-12-20T02:06:05.464Z,0
2017-12-20T02:07:07.190Z,0
2017-12-20T02:08:08.914Z,0
2017-12-20T02:09:10.522Z,0
2017-12-20T02:10:12.065Z,0
2017-12-20T02:11:13.630Z,0
2017-12-20T02:12:15.096Z,0
2017-12-20T02:13:16.752Z,0
2017-12-20T02:14:18.255Z,0
2017-12-20T02:15:19.830Z,0
2017-12-20T02:16:21.253Z,0
2017-12-20T02:17:22.723Z,0
2017-12-20T02:18:24.158Z,0
2017-12-20T02:19:25.638Z,0
2017-12-20T02:20:27.301Z,0
2017-12-20T02:21:28.817Z,0
2017-12-20T02:22:30.457Z,0
2017-12-20T02:23:32.068Z,0
2017-12-20T02:24:33.576Z,0
2017-12-20T02:25:35.005Z,0
2017-12-20T02:26:36.602Z,0
2017-12-20T02:27:38.354Z,0
2017-12-20T02:28:39.980Z,0
2017-12-20T02:29:41.556Z,0
2017-12-20T02:30:43.127Z,0
2017-12-20T02:31:44.592Z,0
2017-12-20T02:32:46.211Z,0
2017-12-20T02:33:47.761Z,0
2017-12-20T02:34:49.337Z,0
2017-12-20T02:35:50.968Z,0
2017-12-20T02:36:52.781Z,0
2017-12-20T02:37:54.359Z,0
2017-12-20T02:38:56.057Z,0
2017-12-20T02:39:57.860Z,0
2017-12-20T02:40:59.478Z,0
2017-12-20T02:42:01.153Z,0
2017-12-20T02:43:02.963Z,0
2017-12-20T02:44:04.709Z,0
2017-12-20T02:45:06.398Z,0
2017-12-20T02:46:08.087Z,0
2017-12-20T02:47:09.926Z,0
2017-12-20T02:48:11.513Z,0
2017-12-20T02:49:12.959Z,0
2017-12-20T02:50:14.382Z,0
2017-12-20T02:51:15.982Z,0
2017-12-20T02:52:17.423Z,0
2017-12-20T02:53:18.901Z,0
2017-12-20T02:54:20.599Z,0
2017-12-20T02:55:22.375Z,0
2017-12-20T02:56:24.008Z,0
2017-12-20T02:57:25.677Z,0
2017-12-20T02:58:27.110Z,0
2017-12-20T02:59:28.596Z,0
2017-12-20T03:00:30.343Z,0
2017-12-20T03:01:31.824Z,0
2017-12-20T03:02:33.458Z,0
2017-12-20T03:03:35.120Z,0
2017-12-20T03:04:36.556Z,0
2017-12-20T03:05:38.147Z,0
2017-12-20T03:06:39.846Z,0
2017-12-20T03:07:41.425Z,0
2017-12-20T03:08:43.160Z,0
2017-12-20T03:09:44.796Z,0
2017-12-20T03:10:46.238Z,0
2017-12-20T03:11:47.889Z,0
2017-12-20T03:12:49.713Z,0
2017-12-20T03:13:51.149Z,0
2017-12-20T03:14:52.883Z,0
2017-12-20T03:15:54.569Z,0
2017-12-20T03:16:56.213Z,0
2017-12-20T03:17:57.800Z,0
2017-12-20T03:18:59.485Z,0
2017-12-20T03:20:00.961Z,0
2017-12-20T03:21:02.712Z,0
2017-12-20T03:22:04.544Z,0
2017-12-20T03:23:06.319Z,0
2017-12-20T03:24:07.993Z,0
2017-12-20T03:25:09.686Z,0
2017-12-20T03:26:11.291Z,0
2017-12-20T03:27:13.018Z,0
2017-12-20T03:28:14.673Z,0
2017-12-20T03:29:16.350Z,0
2017-12-20T03:30:18.115Z,0
2017-12-20T03:31:19.707Z,0
2017-12-20T03:32:21.299Z,0
2017-12-20T03:33:22.939Z,0
2017-12-20T03:34:24.628Z,0
2017-12-20T03:35:26.319Z,0
2017-12-20T03:36:28.006Z,0
2017-12-20T03:37:29.648Z,0
2017-12-20T03:38:31.376Z,0
2017-12-20T03:39:32.983Z,0
2017-12-20T03:40:34.765Z,0
2017-12-20T03:41:36.489Z,0
2017-12-20T03:42:38.181Z,0
2017-12-20T03:43:39.814Z,0
2017-12-20T03:44:41.552Z,0
2017-12-20T03:45:43.137Z,0
2017-12-20T03:46:44.750Z,0
2017-12-20T03:47:46.474Z,0
2017-12-20T03:48:48.197Z,0
2017-12-20T03:49:49.939Z,0
2017-12-20T03:50:51.663Z,0
2017-12-20T03:51:53.291Z,0
2017-12-20T03:52:54.794Z,0
2017-12-20T03:53:56.420Z,0
2017-12-20T03:54:57.967Z,0
2017-12-20T03:55:59.649Z,0
2017-12-20T03:57:01.425Z,0
2017-12-20T03:58:02.873Z,0
2017-12-20T03:59:04.289Z,0
2017-12-20T04:00:05.759Z,0
2017-12-20T04:01:07.276Z,0
2017-12-20T04:02:08.970Z,0
2017-12-20T04:03:10.448Z,0
2017-12-20T04:04:12.062Z,0
2017-12-20T04:05:13.539Z,0
2017-12-20T04:06:15.311Z,0
2017-12-20T04:07:17.025Z,0
2017-12-20T04:08:18.751Z,0
2017-12-20T04:09:20.472Z,0
2017-12-20T04:10:22.133Z,0
2017-12-20T04:11:23.857Z,0
2017-12-20T04:12:25.403Z,0
2017-12-20T04:13:27.030Z,0
2017-12-20T04:14:28.775Z,0
2017-12-20T04:15:30.437Z,0
2017-12-20T04:16:32.135Z,0
2017-12-20T04:17:33.672Z,0
2017-12-20T04:18:35.448Z,0
2017-12-20T04:19:36.913Z,0
2017-12-20T04:20:38.653Z,0
2017-12-20T04:21:40.275Z,0
2017-12-20T04:22:41.929Z,0
2017-12-20T04:23:43.435Z,0
2017-12-20T04:24:45.167Z,0
2017-12-20T04:25:46.980Z,0
2017-12-20T04:26:48.656Z,0
2017-12-20T04:27:50.401Z,0
2017-12-20T04:28:52.104Z,0
2017-12-20T04:29:53.791Z,0
2017-12-20T04:30:55.559Z,0
2017-12-20T04:31:57.142Z,0
2017-12-20T04:32:58.650Z,0
2017-12-20T04:34:00.335Z,0
2017-12-20T04:35:01.767Z,0
2017-12-20T04:36:03.512Z,0
2017-12-20T04:37:05.252Z,0
2017-12-20T04:38:07.016Z,0
2017-12-20T04:39:08.680Z,0
2017-12-20T04:40:10.178Z,0
2017-12-20T04:41:11.849Z,0
2017-12-20T04:42:13.373Z,0
2017-12-20T04:43:15.116Z,0
2017-12-20T04:44:16.772Z,0
2017-12-20T04:45:18.548Z,0
2017-12-20T04:46:20.163Z,0
2017-12-20T04:47:21.889Z,0
2017-12-20T04:48:23.505Z,0
2017-12-20T04:49:24.973Z,0
2017-12-20T04:50:26.706Z,0
2017-12-20T04:51:28.289Z,0
2017-12-20T04:52:29.796Z,0
2017-12-20T04:53:31.223Z,0
2017-12-20T04:54:32.701Z,0
2017-12-20T04:55:34.448Z,0
2017-12-20T04:56:35.863Z,0
2017-12-20T04:57:37.617Z,0
2017-12-20T04:58:39.143Z,0
2017-12-20T04:59:40.674Z,0
2017-12-20T05:00:42.114Z,0
2017-12-20T05:01:43.631Z,0
2017-12-20T05:02:45.367Z,0
2017-12-20T05:03:46.839Z,0
2017-12-20T05:04:48.380Z,0
2017-12-20T05:05:49.827Z,0
2017-12-20T05:06:51.380Z,0
2017-12-20T05:07:52.996Z,0
2017-12-20T05:08:54.530Z,0
2017-12-20T05:09:56.318Z,0
2017-12-20T05:10:58.059Z,0
2017-12-20T05:11:59.712Z,0
2017-12-20T05:13:01.509Z,0
2017-12-20T05:14:03.199Z,0
2017-12-20T05:15:04.866Z,0
2017-12-20T05:16:06.308Z,0
2017-12-20T05:17:08.032Z,0
2017-12-20T05:18:09.708Z,0
2017-12-20T05:19:11.355Z,0
2017-12-20T05:20:12.985Z,0
2017-12-20T05:21:14.679Z,0
2017-12-20T05:22:16.179Z,0
2017-12-20T05:23:17.901Z,0
2017-12-20T05:24:19.670Z,0
2017-12-20T05:25:21.143Z,0
2017-12-20T05:26:22.875Z,0
2017-12-20T05:27:24.332Z,0
2017-12-20T05:28:26.086Z,0
2017-12-20T05:29:27.749Z,0
2017-12-20T05:30:29.176Z,0
2017-12-20T05:31:30.914Z,0
2017-12-20T05:32:32.314Z,0
2017-12-20T05:33:33.808Z,0
2017-12-20T05:34:35.541Z,0
2017-12-20T05:35:37.249Z,0
2017-12-20T05:36:38.874Z,0
2017-12-20T05:37:40.575Z,0
2017-12-20T05:38:42.304Z,0
2017-12-20T05:39:43.891Z,0
2017-12-20T05:40:45.679Z,0
2017-12-20T05:41:47.437Z,0
2017-12-20T05:42:49.098Z,0
2017-12-20T05:43:50.763Z,0
2017-12-20T05:44:52.488Z,0
2017-12-20T05:45:54.156Z,0
2017-12-20T05:46:55.663Z,0
2017-12-20T05:47:57.201Z,0
2017-12-20T05:48:58.840Z,0
2017-12-20T05:50:00.463Z,0
2017-12-20T05:51:02.203Z,0
2017-12-20T05:52:03.658Z,0
2017-12-20T05:53:05.125Z,0
2017-12-20T05:54:06.787Z,0
2017-12-20T05:55:08.490Z,0
2017-12-20T05:56:10.270Z,0
2017-12-20T05:57:12.080Z,0
2017-12-20T05:58:13.833Z,0
2017-12-20T05:59:15.604Z,0
2017-12-20T06:00:17.209Z,0
2017-12-20T06:01:18.976Z,0
2017-12-20T06:02:20.675Z,0
2017-12-20T06:03:22.405Z,0
2017-12-20T06:04:24.167Z,0
2017-12-20T06:05:25.903Z,0
2017-12-20T06:06:27.571Z,0
2017-12-20T06:07:29.386Z,0
2017-12-20T06:08:31.103Z,0
2017-12-20T06:09:32.741Z,0
2017-12-20T06:10:34.193Z,0
2017-12-20T06:11:35.687Z,0
2017-12-20T06:12:37.276Z,0
2017-12-20T06:13:38.990Z,0
2017-12-20T06:14:40.477Z,0
2017-12-20T06:15:41.946Z,0
2017-12-20T06:16:43.630Z,0
2017-12-20T06:17:45.177Z,0
2017-12-20T06:18:46.602Z,0
2017-12-20T06:19:48.077Z,0
2017-12-20T06:20:49.557Z,0
2017-12-20T06:21:51.312Z,0
2017-12-20T06:22:52.756Z,0
2017-12-20T06:23:54.277Z,0
2017-12-20T06:24:56.007Z,0
2017-12-20T06:25:57.702Z,0
2017-12-20T06:26:59.367Z,0
2017-12-20T06:28:01.231Z,0
2017-12-20T06:29:02.861Z,0
2017-12-20T06:30:04.706Z,0
2017-12-20T06:31:06.420Z,0
2017-12-20T06:32:07.860Z,0
2017-12-20T06:33:09.601Z,0
2017-12-20T06:34:11.322Z,0
2017-12-20T06:35:13.037Z,0
2017-12-20T06:36:14.495Z,0
2017-12-20T06:37:16.317Z,0
2017-12-20T06:38:17.736Z,0
2017-12-20T06:39:19.177Z,0
2017-12-20T06:40:20.829Z,0
2017-12-20T06:41:22.556Z,0
2017-12-20T06:42:24.324Z,0
2017-12-20T06:43:26.000Z,0
2017-12-20T06:44:27.569Z,0
2017-12-20T06:45:29.208Z,0
2017-12-20T06:46:30.648Z,0
2017-12-20T06:47:32.309Z,0
2017-12-20T06:48:34.040Z,0
2017-12-20T06:49:35.762Z,0
2017-12-20T06:50:37.247Z,0
2017-12-20T06:51:38.681Z,0
2017-12-20T06:52:40.139Z,0
2017-12-20T06:53:41.567Z,0
2017-12-20T06:54:43.266Z,0
2017-12-20T06:55:44.730Z,0
2017-12-20T06:56:46.441Z,0
2017-12-20T06:57:48.162Z,0
2017-12-20T06:58:49.617Z,0
2017-12-20T06:59:51.076Z,4
2017-12-20T07:00:52.536Z,0
2017-12-20T07:01:54.239Z,0
2017-12-20T07:02:56.029Z,4
2017-12-20T07:03:57.774Z,0
2017-12-20T07:04:59.468Z,4
2017-12-20T07:06:01.039Z,4
2017-12-20T07:07:02.867Z,4
2017-12-20T07:08:04.310Z,8
2017-12-20T07:09:05.918Z,8
2017-12-20T07:10:07.598Z,8
2017-12-20T07:11:09.391Z,12
2017-12-20T07:12:11.134Z,12
2017-12-20T07:13:12.698Z,12
2017-12-20T07:14:14.250Z,16
2017-12-20T07:15:15.699Z,16
2017-12-20T07:16:17.146Z,20
2017-12-20T07:17:18.603Z,20
2017-12-20T07:18:20.074Z,28
2017-12-20T07:19:21.515Z,32
2017-12-20T07:20:23.027Z,36
2017-12-20T07:21:24.485Z,40
2017-12-20T07:22:25.983Z,48
2017-12-20T07:23:27.634Z,52
2017-12-20T07:24:29.190Z,60
2017-12-20T07:25:30.660Z,64
2017-12-20T07:26:32.114Z,72
2017-12-20T07:27:33.609Z,80
2017-12-20T07:28:35.094Z,88
2017-12-20T07:29:36.527Z,96
2017-12-20T07:30:38.196Z,100
2017-12-20T07:31:39.999Z,104
2017-12-20T07:32:41.644Z,112
2017-12-20T07:33:43.340Z,116
2017-12-20T07:34:44.949Z,128
2017-12-20T07:35:46.540Z,136
2017-12-20T07:36:48.059Z,152
2017-12-20T07:37:49.557Z,164
2017-12-20T07:38:51.078Z,172
2017-12-20T07:39:52.532Z,176
2017-12-20T07:40:54.009Z,192
2017-12-20T07:41:55.660Z,196
2017-12-20T07:42:57.271Z,200
2017-12-20T07:43:58.821Z,216
2017-12-20T07:45:00.262Z,224
2017-12-20T07:46:01.697Z,224
2017-12-20T07:47:03.297Z,224
2017-12-20T07:48:05.031Z,216
2017-12-20T07:49:06.615Z,220
2017-12-20T07:50:08.202Z,224
2017-12-20T07:51:09.821Z,220
2017-12-20T07:52:11.368Z,224
2017-12-20T07:53:12.837Z,248
2017-12-20T07:54:14.307Z,264
2017-12-20T07:55:15.827Z,284
2017-12-20T07:56:17.288Z,300
2017-12-20T07:57:18.766Z,328
2017-12-20T07:58:20.331Z,360
2017-12-20T07:59:21.762Z,404
2017-12-20T08:00:23.279Z,456
2017-12-20T08:01:24.802Z,536
2017-12-20T08:02:26.229Z,608
2017-12-20T08:03:27.694Z,664
2017-12-20T08:04:29.221Z,684
2017-12-20T08:05:30.691Z,696
2017-12-20T08:06:32.131Z,676
2017-12-20T08:07:33.809Z,680
2017-12-20T08:08:35.307Z,648
2017-12-20T08:09:37.054Z,608
2017-12-20T08:10:38.515Z,580
2017-12-20T08:11:40.167Z,564
2017-12-20T08:12:41.938Z,544
2017-12-20T08:13:43.610Z,548
2017-12-20T08:14:45.067Z,580
2017-12-20T08:15:46.534Z,604
2017-12-20T08:16:47.964Z,676
2017-12-20T08:17:49.377Z,740
2017-12-20T08:18:50.815Z,824
2017-12-20T08:19:52.337Z,876
2017-12-20T08:20:53.862Z,896
2017-12-20T08:21:55.613Z,896
2017-12-20T08:22:57.267Z,916
2017-12-20T08:23:58.804Z,924
2017-12-20T08:25:00.522Z,920
2017-12-20T08:26:01.920Z,936
2017-12-20T08:27:03.446Z,936
2017-12-20T08:28:04.884Z,936
2017-12-20T08:29:06.376Z,972
2017-12-20T08:30:07.912Z,1088
2017-12-20T08:31:09.450Z,1192
2017-12-20T08:32:10.998Z,1288
2017-12-20T08:33:12.619Z,1320
2017-12-20T08:34:14.196Z,1276
2017-12-20T08:35:15.665Z,1204
2017-12-20T08:36:17.287Z,1132
2017-12-20T08:37:18.892Z,1104
2017-12-20T08:38:20.281Z,1112
2017-12-20T08:39:21.755Z,1136
2017-12-20T08:40:23.214Z,1136
2017-12-20T08:41:24.781Z,1140
2017-12-20T08:42:26.249Z,1200
2017-12-20T08:43:27.821Z,1316
2017-12-20T08:44:29.386Z,1448
2017-12-20T08:45:30.886Z,1604
2017-12-20T08:46:32.413Z,1760
2017-12-20T08:47:34.147Z,1916
2017-12-20T08:48:35.588Z,2044
2017-12-20T08:49:37.063Z,2084
2017-12-20T08:50:38.571Z,2036
2017-12-20T08:51:40.011Z,1956
2017-12-20T08:52:41.462Z,1968
2017-12-20T08:53:42.907Z,2068
2017-12-20T08:54:44.335Z,2176
2017-12-20T08:55:46.076Z,2232
2017-12-20T08:56:47.562Z,2248
2017-12-20T08:57:48.984Z,2284
2017-12-20T08:58:50.459Z,2356
2017-12-20T08:59:51.914Z,2400
2017-12-20T09:00:53.373Z,2620
2017-12-20T09:01:54.902Z,2816
2017-12-20T09:02:56.661Z,2828
2017-12-20T09:03:58.266Z,2740
2017-12-20T09:04:59.954Z,2584
2017-12-20T09:06:01.473Z,2476
2017-12-20T09:07:03.153Z,2444
2017-12-20T09:08:04.779Z,2444
2017-12-20T09:09:06.267Z,2380
2017-12-20T09:10:07.707Z,2308
2017-12-20T09:11:09.374Z,2260
2017-12-20T09:12:11.216Z,2288
2017-12-20T09:13:12.630Z,2348
2017-12-20T09:14:14.266Z,2368
2017-12-20T09:15:15.735Z,2348
2017-12-20T09:16:17.324Z,2216
2017-12-20T09:17:18.891Z,2108
2017-12-20T09:18:20.327Z,2020
2017-12-20T09:19:21.917Z,1964
2017-12-20T09:20:23.352Z,2028
2017-12-20T09:21:24.770Z,2036
2017-12-20T09:22:26.251Z,1984
2017-12-20T09:23:27.741Z,2004
2017-12-20T09:24:29.492Z,2140
2017-12-20T09:25:31.154Z,2272
2017-12-20T09:26:32.774Z,2412
2017-12-20T09:27:34.224Z,2528
2017-12-20T09:28:35.745Z,2600
2017-12-20T09:29:37.446Z,2764
2017-12-20T09:30:39.099Z,3032
2017-12-20T09:31:40.817Z,3252
2017-12-20T09:32:42.439Z,3332
2017-12-20T09:33:43.856Z,3412
2017-12-20T09:34:45.474Z,3512
2017-12-20T09:35:46.907Z,3640
2017-12-20T09:36:48.549Z,3644
2017-12-20T09:37:50.005Z,3704
2017-12-20T09:38:51.601Z,3808
2017-12-20T09:39:53.202Z,3984
2017-12-20T09:40:54.667Z,4052
2017-12-20T09:41:56.267Z,4072
2017-12-20T09:42:57.869Z,4100
2017-12-20T09:43:59.402Z,4132
2017-12-20T09:45:00.874Z,4144
2017-12-20T09:46:02.351Z,4148
2017-12-20T09:47:03.819Z,4056
2017-12-20T09:48:05.277Z,3780
2017-12-20T09:49:06.706Z,3508
2017-12-20T09:50:08.125Z,3548
2017-12-20T09:51:09.742Z,3776
2017-12-20T09:52:11.220Z,4160
2017-12-20T09:53:12.683Z,4808
2017-12-20T09:54:14.160Z,4928
2017-12-20T09:55:15.818Z,5068
2017-12-20T09:56:17.211Z,5256
2017-12-20T09:57:18.756Z,5448
2017-12-20T09:58:20.340Z,5544
2017-12-20T09:59:21.791Z,5364
2017-12-20T10:00:23.223Z,5160
2017-12-20T10:01:24.677Z,4944
2017-12-20T10:02:26.350Z,4764
2017-12-20T10:03:27.970Z,4744
2017-12-20T10:04:29.598Z,4732
2017-12-20T10:05:31.337Z,4672
2017-12-20T10:06:32.974Z,4888
2017-12-20T10:07:34.653Z,5056
2017-12-20T10:08:36.389Z,5060
2017-12-20T10:09:38.026Z,5108
2017-12-20T10:10:39.756Z,4852
2017-12-20T10:11:41.284Z,4412
2017-12-20T10:12:43.042Z,3944
2017-12-20T10:13:44.816Z,3852
2017-12-20T10:14:46.632Z,3924
2017-12-20T10:15:48.311Z,4192
2017-12-20T10:16:50.179Z,4380
2017-12-20T10:17:51.973Z,4508
2017-12-20T10:18:53.796Z,4372
2017-12-20T10:19:55.733Z,4580
2017-12-20T10:20:57.407Z,4628
2017-12-20T10:21:58.827Z,4616
2017-12-20T10:23:00.596Z,4496
2017-12-20T10:24:02.240Z,4012
2017-12-20T10:25:03.933Z,4112
2017-12-20T10:26:05.367Z,3580
2017-12-20T10:27:06.823Z,3156
2017-12-20T10:28:08.547Z,3216
2017-12-20T10:29:10.037Z,3416
2017-12-20T10:30:11.648Z,3112
2017-12-20T10:31:13.359Z,2784
2017-12-20T10:32:15.030Z,2704
2017-12-20T10:33:16.525Z,2864
2017-12-20T10:34:18.297Z,3100
2017-12-20T10:35:19.971Z,3412
2017-12-20T10:36:21.726Z,3468
2017-12-20T10:37:23.180Z,3248
2017-12-20T10:38:24.617Z,3120
2017-12-20T10:39:26.342Z,3224
2017-12-20T10:40:27.923Z,3376
2017-12-20T10:41:29.609Z,3316
2017-12-20T10:42:31.393Z,3288
2017-12-20T10:43:33.160Z,3544
2017-12-20T10:44:34.782Z,3556
2017-12-20T10:45:36.250Z,3464
2017-12-20T10:46:37.986Z,3180
2017-12-20T10:47:39.669Z,3424
2017-12-20T10:48:41.366Z,3572
2017-12-20T10:49:43.006Z,4080
2017-12-20T10:50:44.497Z,4644
2017-12-20T10:51:46.219Z,5528
2017-12-20T10:52:47.859Z,5516
2017-12-20T10:53:49.554Z,5272
2017-12-20T10:54:51.215Z,4656
2017-12-20T10:55:52.926Z,3844
2017-12-20T10:56:54.601Z,3408
2017-12-20T10:57:56.282Z,3356
2017-12-20T10:58:58.113Z,2992
2017-12-20T10:59:59.553Z,2988
2017-12-20T11:01:01.042Z,3052
2017-12-20T11:02:02.806Z,2972
2017-12-20T11:03:04.534Z,3224
2017-12-20T11:04:06.242Z,3208
2017-12-20T11:05:07.986Z,3064
2017-12-20T11:06:09.788Z,3164
2017-12-20T11:07:11.528Z,3540
2017-12-20T11:08:13.189Z,3788
2017-12-20T11:09:14.658Z,3372
2017-12-20T11:10:16.108Z,2904
2017-12-20T11:11:17.567Z,3276
2017-12-20T11:12:19.019Z,3540
2017-12-20T11:13:20.458Z,3032
2017-12-20T11:14:22.201Z,2804
2017-12-20T11:15:23.932Z,3128
2017-12-20T11:16:25.530Z,2900
2017-12-20T11:17:27.305Z,2964
2017-12-20T11:18:29.121Z,2956
2017-12-20T11:19:30.868Z,2844
2017-12-20T11:20:32.612Z,2900
2017-12-20T11:21:34.360Z,3084
2017-12-20T11:22:36.106Z,3320
2017-12-20T11:23:37.819Z,3300
2017-12-20T11:24:39.502Z,3420
2017-12-20T11:25:40.994Z,3772
2017-12-20T11:26:42.709Z,3864
2017-12-20T11:27:44.387Z,3768
2017-12-20T11:28:46.015Z,3864
2017-12-20T11:29:47.526Z,3452
2017-12-20T11:30:49.191Z,3408
2017-12-20T11:31:50.950Z,3184
2017-12-20T11:32:52.375Z,3288
2017-12-20T11:33:53.925Z,3080
2017-12-20T11:34:55.582Z,3336
2017-12-20T11:35:57.041Z,3288
2017-12-20T11:36:58.496Z,2852
2017-12-20T11:38:00.213Z,2836
2017-12-20T11:39:01.915Z,2872
2017-12-20T11:40:03.702Z,2612
2017-12-20T11:41:05.436Z,2500
2017-12-20T11:42:07.175Z,2380
2017-12-20T11:43:08.804Z,2452
2017-12-20T11:44:10.598Z,2484
2017-12-20T11:45:12.089Z,2444
2017-12-20T11:46:13.818Z,2176
2017-12-20T11:47:15.671Z,1872
2017-12-20T11:48:17.395Z,1740
2017-12-20T11:49:18.827Z,1624
2017-12-20T11:50:20.569Z,1636
2017-12-20T11:51:22.237Z,1620
2017-12-20T11:52:23.721Z,1728
2017-12-20T11:53:25.397Z,1756
2017-12-20T11:54:26.942Z,2004
2017-12-20T11:55:28.633Z,2308
2017-12-20T11:56:30.112Z,2488
2017-12-20T11:57:31.891Z,2588
2017-12-20T11:58:33.526Z,2432
2017-12-20T11:59:35.217Z,2332
2017-12-20T12:00:36.668Z,2428
2017-12-20T12:01:38.351Z,2576
2017-12-20T12:02:39.971Z,2364
2017-12-20T12:03:41.772Z,2364
2017-12-20T12:04:43.416Z,2232
2017-12-20T12:05:45.052Z,2304
2017-12-20T12:06:46.622Z,2340
2017-12-20T12:07:48.064Z,2024
2017-12-20T12:08:49.811Z,2116
2017-12-20T12:09:51.314Z,2248
2017-12-20T12:10:52.788Z,2180
2017-12-20T12:11:54.475Z,2516
2017-12-20T12:12:56.158Z,2680
2017-12-20T12:13:57.635Z,2796
2017-12-20T12:14:59.371Z,2576
2017-12-20T12:16:01.101Z,2640
2017-12-20T12:17:02.765Z,2840
2017-12-20T12:18:04.477Z,2740
2017-12-20T12:19:06.226Z,2744
2017-12-20T12:20:07.660Z,3008
2017-12-20T12:21:09.398Z,2900
2017-12-20T12:22:10.912Z,3068
2017-12-20T12:23:12.441Z,3176
2017-12-20T12:24:14.188Z,3404
2017-12-20T12:25:15.634Z,3844
2017-12-20T12:26:17.347Z,3988
2017-12-20T12:27:19.037Z,3800
2017-12-20T12:28:20.791Z,3796
2017-12-20T12:29:22.629Z,3760
2017-12-20T12:30:24.343Z,4352
2017-12-20T12:31:26.072Z,4412
2017-12-20T12:32:27.922Z,4032
2017-12-20T12:33:29.359Z,4228
2017-12-20T12:34:31.147Z,4696
2017-12-20T12:35:32.957Z,4324
2017-12-20T12:36:34.484Z,4492
2017-12-20T12:37:36.218Z,3640
2017-12-20T12:38:37.965Z,3112
2017-12-20T12:39:39.797Z,2696
2017-12-20T12:40:41.307Z,2412
2017-12-20T12:41:43.050Z,2084
2017-12-20T12:42:44.725Z,1792
2017-12-20T12:43:46.207Z,1652
2017-12-20T12:44:48.003Z,1564
2017-12-20T12:45:49.476Z,1476
2017-12-20T12:46:51.135Z,1368
2017-12-20T12:47:52.841Z,1280
2017-12-20T12:48:54.526Z,1340
2017-12-20T12:49:56.196Z,1392
2017-12-20T12:50:57.887Z,1720
2017-12-20T12:51:59.499Z,1788
2017-12-20T12:53:01.182Z,1484
2017-12-20T12:54:02.859Z,1384
2017-12-20T12:55:04.644Z,1392
2017-12-20T12:56:06.062Z,1300
2017-12-20T12:57:07.533Z,1184
2017-12-20T12:58:09.178Z,1024
2017-12-20T12:59:10.674Z,968
2017-12-20T13:00:12.207Z,920
2017-12-20T13:01:13.704Z,848
2017-12-20T13:02:15.433Z,788
2017-12-20T13:03:17.160Z,716
2017-12-20T13:04:18.898Z,744
2017-12-20T13:05:20.355Z,688
2017-12-20T13:06:22.113Z,688
2017-12-20T13:07:23.795Z,696
2017-12-20T13:08:25.512Z,740
2017-12-20T13:09:27.146Z,912
2017-12-20T13:10:28.819Z,1016
2017-12-20T13:11:30.521Z,1116
2017-12-20T13:12:33.131Z,1296
2017-12-20T13:13:34.805Z,1540
2017-12-20T13:14:36.537Z,1580
2017-12-20T13:15:38.230Z,1576
2017-12-20T13:16:39.842Z,1576
2017-12-20T13:17:41.574Z,1600
2017-12-20T13:18:43.026Z,1516
2017-12-20T13:19:44.713Z,1404
2017-12-20T13:20:46.151Z,1496
2017-12-20T13:21:47.832Z,1512
2017-12-20T13:22:49.608Z,1488
2017-12-20T13:23:51.276Z,1576
2017-12-20T13:24:52.942Z,1712
2017-12-20T13:25:54.418Z,1700
2017-12-20T13:26:56.133Z,1712
2017-12-20T13:27:57.897Z,1724
2017-12-20T13:28:59.399Z,1664
2017-12-20T13:30:01.111Z,1604
2017-12-20T13:31:02.824Z,1536
2017-12-20T13:32:04.434Z,1436
2017-12-20T13:33:06.205Z,1408
2017-12-20T13:34:07.947Z,1440
2017-12-20T13:35:09.709Z,1484
2017-12-20T13:36:11.438Z,1552
2017-12-20T13:37:13.234Z,1580
2017-12-20T13:38:15.001Z,1516
2017-12-20T13:39:16.780Z,1444
2017-12-20T13:40:18.263Z,1372
2017-12-20T13:41:19.994Z,1364
2017-12-20T13:42:21.420Z,1328
2017-12-20T13:43:23.088Z,1348
2017-12-20T13:44:24.861Z,1300
2017-12-20T13:45:26.487Z,1212
2017-12-20T13:46:28.304Z,1204
2017-12-20T13:47:29.984Z,1120
2017-12-20T13:48:31.721Z,1040
2017-12-20T13:49:33.267Z,1104
2017-12-20T13:50:34.845Z,1076
2017-12-20T13:51:36.301Z,1072
2017-12-20T13:52:38.038Z,1012
2017-12-20T13:53:39.513Z,964
2017-12-20T13:54:41.477Z,968
2017-12-20T13:55:42.988Z,932
2017-12-20T13:56:44.407Z,892
2017-12-20T13:57:45.812Z,916
2017-12-20T13:58:47.315Z,872
2017-12-20T13:59:48.807Z,868
2017-12-20T14:00:50.380Z,856
2017-12-20T14:01:51.931Z,832
2017-12-20T14:02:53.413Z,852
2017-12-20T14:03:54.908Z,768
2017-12-20T14:04:56.605Z,848
2017-12-20T14:05:58.340Z,904
2017-12-20T14:07:00.018Z,840
2017-12-20T14:08:01.770Z,828
2017-12-20T14:09:03.425Z,832
2017-12-20T14:10:05.063Z,860
2017-12-20T14:11:06.919Z,864
2017-12-20T14:12:08.561Z,752
2017-12-20T14:13:10.386Z,680
2017-12-20T14:14:11.821Z,632
2017-12-20T14:15:13.314Z,592
2017-12-20T14:16:15.123Z,572
2017-12-20T14:17:16.561Z,612
2017-12-20T14:18:18.001Z,664
2017-12-20T14:19:19.449Z,620
2017-12-20T14:20:21.022Z,704
2017-12-20T14:21:22.668Z,804
2017-12-20T14:22:24.170Z,836
2017-12-20T14:23:25.619Z,824
2017-12-20T14:24:27.148Z,792
2017-12-20T14:25:28.807Z,772
2017-12-20T14:26:30.292Z,816
2017-12-20T14:27:31.798Z,816
2017-12-20T14:28:33.289Z,804